Aviation Digital Data Service (ADDS)

Output produced by METARs form (1714 UTC 27 September 2016)
found at http://aviationweather.gov/adds/metars/
 
KSAN 271701Z 2717/2818 12008KT P6SM BKN150 
     FM271900 21009KT P6SM BKN120 
     FM280200 VRB04KT P6SM BKN100